createdAt,value
2019-05-11T00:00:12.761Z,1000.67
2019-05-11T00:01:18.277Z,1000.65
2019-05-11T00:02:23.790Z,1000.56
2019-05-11T00:03:29.291Z,1000.55
2019-05-11T00:04:34.810Z,1000.54
2019-05-11T00:05:40.315Z,1000.51
2019-05-11T00:06:45.823Z,1000.51
2019-05-11T00:07:51.338Z,1000.49
2019-05-11T00:08:56.836Z,1000.50
2019-05-11T00:10:02.349Z,1000.47
2019-05-11T00:11:07.865Z,1000.46
2019-05-11T00:12:13.384Z,1000.44
2019-05-11T00:13:18.896Z,1000.47
2019-05-11T00:14:24.398Z,1000.44
2019-05-11T00:15:29.907Z,1000.46
2019-05-11T00:16:35.432Z,1000.52
2019-05-11T00:17:40.932Z,1000.50
2019-05-11T00:18:46.443Z,1000.52
2019-05-11T00:19:51.946Z,1000.52
2019-05-11T00:20:57.458Z,1000.51
2019-05-11T00:22:02.966Z,1000.51
2019-05-11T00:23:08.483Z,1000.53
2019-05-11T00:24:13.995Z,1000.55
2019-05-11T00:25:19.496Z,1000.50
2019-05-11T00:26:25.008Z,1000.50
2019-05-11T00:27:30.520Z,1000.52
2019-05-11T00:28:36.028Z,1000.54
2019-05-11T00:29:41.610Z,1000.55
2019-05-11T00:30:47.054Z,1000.53
2019-05-11T00:31:52.571Z,1000.54
2019-05-11T00:32:58.071Z,1000.46
2019-05-11T00:34:03.591Z,1000.49
2019-05-11T00:35:09.095Z,1000.50
2019-05-11T00:36:14.595Z,1000.48
2019-05-11T00:37:20.105Z,1000.50
2019-05-11T00:38:25.626Z,1000.46
2019-05-11T00:39:31.121Z,1000.40
2019-05-11T00:40:36.641Z,1000.39
2019-05-11T00:41:42.150Z,1000.35
2019-05-11T00:42:47.656Z,1000.36
2019-05-11T00:43:53.163Z,1000.32
2019-05-11T00:44:58.675Z,1000.31
2019-05-11T00:46:04.194Z,1000.27
2019-05-11T00:47:09.697Z,1000.26
2019-05-11T00:48:15.216Z,1000.30
2019-05-11T00:49:20.717Z,1000.29
2019-05-11T00:50:38.715Z,1000.27
2019-05-11T00:51:31.746Z,1000.29
2019-05-11T00:52:37.252Z,1000.31
2019-05-11T00:53:42.756Z,1000.34
2019-05-11T00:54:48.263Z,1000.33
2019-05-11T00:55:53.780Z,1000.32
2019-05-11T00:56:59.286Z,1000.31
2019-05-11T00:58:04.792Z,1000.30
2019-05-11T00:59:21.541Z,1000.27
2019-05-11T01:00:15.823Z,1000.28
2019-05-11T01:01:21.339Z,1000.27
2019-05-11T01:02:26.838Z,1000.22
2019-05-11T01:03:32.348Z,1000.18
2019-05-11T01:04:37.873Z,1000.19
2019-05-11T01:05:43.384Z,1000.17
2019-05-11T01:06:48.945Z,1000.16
2019-05-11T01:07:54.508Z,1000.18
2019-05-11T01:08:59.905Z,1000.19
2019-05-11T01:10:05.412Z,1000.18
2019-05-11T01:11:10.918Z,1000.18
2019-05-11T01:12:16.428Z,1000.21
2019-05-11T01:13:21.936Z,1000.20
2019-05-11T01:14:27.456Z,1000.14
2019-05-11T01:15:32.956Z,1000.18
2019-05-11T01:16:38.476Z,1000.12
2019-05-11T01:17:43.987Z,1000.18
2019-05-11T01:18:49.494Z,1000.17
2019-05-11T01:19:55.002Z,1000.12
2019-05-11T01:21:00.513Z,1000.15
2019-05-11T01:22:06.019Z,1000.13
2019-05-11T01:23:11.529Z,1000.15
2019-05-11T01:24:17.040Z,1000.18
2019-05-11T01:25:22.553Z,1000.15
2019-05-11T01:26:28.064Z,1000.15
2019-05-11T01:27:33.573Z,1000.16
2019-05-11T01:28:39.081Z,1000.14
2019-05-11T01:29:44.598Z,1000.14
2019-05-11T01:30:50.107Z,1000.15
2019-05-11T01:31:55.626Z,1000.18
2019-05-11T01:33:01.122Z,1000.14
2019-05-11T01:34:06.632Z,1000.14
2019-05-11T01:35:12.144Z,1000.15
2019-05-11T01:36:17.673Z,1000.16
2019-05-11T01:37:23.166Z,1000.18
2019-05-11T01:38:28.681Z,1000.21
2019-05-11T01:39:34.186Z,1000.20
2019-05-11T01:40:39.700Z,1000.16
2019-05-11T01:41:45.223Z,1000.16
2019-05-11T01:42:50.713Z,1000.17
2019-05-11T01:43:56.228Z,1000.16
2019-05-11T01:45:01.742Z,1000.14
2019-05-11T01:46:07.249Z,1000.08
2019-05-11T01:47:12.758Z,1000.09
2019-05-11T01:48:18.266Z,1000.07
2019-05-11T01:49:23.779Z,1000.09
2019-05-11T01:50:29.299Z,1000.09
2019-05-11T01:51:34.810Z,1000.11
2019-05-11T01:52:40.307Z,1000.09
2019-05-11T01:53:48.009Z,1000.12
2019-05-11T01:54:51.329Z,1000.10
2019-05-11T01:55:56.843Z,1000.09
2019-05-11T01:57:02.351Z,1000.09
2019-05-11T01:58:07.868Z,1000.09
2019-05-11T01:59:13.371Z,999.99
2019-05-11T02:00:18.884Z,1000.02
2019-05-11T02:01:24.397Z,999.99
2019-05-11T02:02:29.916Z,999.96
2019-05-11T02:03:35.429Z,999.94
2019-05-11T02:04:40.929Z,999.86
2019-05-11T02:05:46.433Z,999.89
2019-05-11T02:06:51.942Z,999.90
2019-05-11T02:07:57.459Z,999.90
2019-05-11T02:09:02.963Z,999.86
2019-05-11T02:10:08.474Z,999.83
2019-05-11T02:11:16.172Z,999.83
2019-05-11T02:12:19.491Z,999.87
2019-05-11T02:13:25.009Z,999.88
2019-05-11T02:14:30.513Z,999.88
2019-05-11T02:15:36.020Z,999.88
2019-05-11T02:16:41.547Z,999.93
2019-05-11T02:17:47.058Z,999.93
2019-05-11T02:18:52.553Z,999.91
2019-05-11T02:19:58.090Z,999.90
2019-05-11T02:21:03.583Z,999.95
2019-05-11T02:22:09.086Z,999.94
2019-05-11T02:23:14.593Z,999.93
2019-05-11T02:24:20.109Z,999.90
2019-05-11T02:25:25.613Z,999.93
2019-05-11T02:26:31.125Z,999.90
2019-05-11T02:27:36.645Z,999.86
2019-05-11T02:28:42.152Z,999.84
2019-05-11T02:29:47.672Z,999.83
2019-05-11T02:30:53.168Z,999.86
2019-05-11T02:31:58.678Z,999.79
2019-05-11T02:33:04.184Z,999.74
2019-05-11T02:34:09.699Z,999.75
2019-05-11T02:35:15.205Z,999.73
2019-05-11T02:36:20.731Z,999.67
2019-05-11T02:37:26.239Z,999.65
2019-05-11T02:38:31.748Z,999.65
2019-05-11T02:39:37.255Z,999.59
2019-05-11T02:40:42.759Z,999.55
2019-05-11T02:41:48.268Z,999.51
2019-05-11T02:42:53.819Z,999.53
2019-05-11T02:43:59.305Z,999.53
2019-05-11T02:45:04.809Z,999.53
2019-05-11T02:46:10.328Z,999.55
2019-05-11T02:47:15.824Z,999.63
2019-05-11T02:48:21.341Z,999.67
2019-05-11T02:49:28.170Z,999.67
2019-05-11T02:50:32.350Z,999.70
2019-05-11T02:51:37.864Z,999.70
2019-05-11T02:52:43.370Z,999.76
2019-05-11T02:53:48.889Z,999.79
2019-05-11T02:54:54.393Z,999.75
2019-05-11T02:55:59.936Z,999.80
2019-05-11T02:57:05.414Z,999.83
2019-05-11T02:58:10.942Z,999.85
2019-05-11T02:59:16.435Z,999.84
2019-05-11T03:00:21.948Z,999.88
2019-05-11T03:01:27.460Z,999.82
2019-05-11T03:02:32.960Z,999.85
2019-05-11T03:03:38.481Z,999.85
2019-05-11T03:04:43.986Z,999.87
2019-05-11T03:05:49.507Z,999.90
2019-05-11T03:06:55.007Z,999.92
2019-05-11T03:08:00.518Z,999.95
2019-05-11T03:09:06.032Z,999.99
2019-05-11T03:10:11.550Z,999.96
2019-05-11T03:11:17.053Z,999.98
2019-05-11T03:12:22.564Z,999.97
2019-05-11T03:13:28.069Z,1000.00
2019-05-11T03:14:33.581Z,999.98
2019-05-11T03:15:39.094Z,1000.02
2019-05-11T03:16:44.603Z,1000.02
2019-05-11T03:17:50.115Z,1000.02
2019-05-11T03:18:55.619Z,1000.05
2019-05-11T03:20:01.143Z,1000.06
2019-05-11T03:21:06.690Z,1000.06
2019-05-11T03:22:12.145Z,1000.04
2019-05-11T03:23:17.673Z,1000.06
2019-05-11T03:24:24.125Z,1000.05
2019-05-11T03:25:28.701Z,1000.06
2019-05-11T03:26:34.197Z,1000.14
2019-05-11T03:27:39.707Z,1000.15
2019-05-11T03:28:45.213Z,1000.16
2019-05-11T03:29:50.739Z,1000.17
2019-05-11T03:30:56.242Z,1000.19
2019-05-11T03:32:01.738Z,1000.23
2019-05-11T03:33:07.259Z,1000.22
2019-05-11T03:34:12.758Z,1000.20
2019-05-11T03:35:18.275Z,1000.21
2019-05-11T03:36:23.783Z,1000.22
2019-05-11T03:37:29.305Z,1000.21
2019-05-11T03:38:34.806Z,1000.24
2019-05-11T03:39:40.336Z,1000.20
2019-05-11T03:40:45.822Z,1000.25
2019-05-11T03:41:51.338Z,1000.25
2019-05-11T03:42:56.846Z,1000.27
2019-05-11T03:44:02.357Z,1000.26
2019-05-11T03:45:07.865Z,1000.26
2019-05-11T03:46:13.382Z,1000.31
2019-05-11T03:47:18.890Z,1000.34
2019-05-11T03:48:24.409Z,1000.31
2019-05-11T03:49:29.913Z,1000.31
2019-05-11T03:50:35.423Z,1000.35
2019-05-11T03:51:40.929Z,1000.33
2019-05-11T03:52:46.457Z,1000.32
2019-05-11T03:53:51.962Z,1000.28
2019-05-11T03:54:57.466Z,1000.28
2019-05-11T03:56:02.990Z,1000.27
2019-05-11T03:57:08.483Z,1000.28
2019-05-11T03:58:14.003Z,1000.28
2019-05-11T03:59:19.496Z,1000.27
2019-05-11T04:00:25.019Z,1000.29
2019-05-11T04:01:30.521Z,1000.29
2019-05-11T04:02:36.037Z,1000.31
2019-05-11T04:03:41.550Z,1000.35
2019-05-11T04:04:47.050Z,1000.37
2019-05-11T04:05:52.565Z,1000.36
2019-05-11T04:06:58.074Z,1000.33
2019-05-11T04:08:03.589Z,1000.34
2019-05-11T04:09:09.094Z,1000.33
2019-05-11T04:10:14.600Z,1000.31
2019-05-11T04:11:20.113Z,1000.28
2019-05-11T04:12:34.809Z,1000.30
2019-05-11T04:13:31.151Z,1000.27
2019-05-11T04:14:36.652Z,1000.35
2019-05-11T04:15:42.162Z,1000.31
2019-05-11T04:16:47.670Z,1000.32
2019-05-11T04:17:53.175Z,1000.30
2019-05-11T04:18:58.704Z,1000.32
2019-05-11T04:20:04.194Z,1000.32
2019-05-11T04:21:09.709Z,1000.30
2019-05-11T04:22:15.217Z,1000.30
2019-05-11T04:23:20.732Z,1000.30
2019-05-11T04:24:26.242Z,1000.31
2019-05-11T04:25:31.757Z,1000.30
2019-05-11T04:26:37.272Z,1000.26
2019-05-11T04:27:42.764Z,1000.32
2019-05-11T04:28:48.287Z,1000.27
2019-05-11T04:29:53.807Z,1000.26
2019-05-11T04:30:59.305Z,1000.26
2019-05-11T04:32:04.808Z,1000.24
2019-05-11T04:33:10.324Z,1000.24
2019-05-11T04:34:15.832Z,1000.24
2019-05-11T04:35:21.348Z,1000.27
2019-05-11T04:36:26.856Z,1000.26
2019-05-11T04:37:32.359Z,1000.30
2019-05-11T04:38:37.888Z,1000.32
2019-05-11T04:39:43.381Z,1000.33
2019-05-11T04:40:48.901Z,1000.28
2019-05-11T04:41:54.406Z,1000.29
2019-05-11T04:42:59.915Z,1000.31
2019-05-11T04:44:05.472Z,1000.30
2019-05-11T04:45:10.946Z,1000.30
2019-05-11T04:46:16.447Z,1000.30
2019-05-11T04:47:21.978Z,1000.28
2019-05-11T04:48:27.465Z,1000.24
2019-05-11T04:49:32.977Z,1000.24
2019-05-11T04:50:38.494Z,1000.25
2019-05-11T04:51:44.010Z,1000.20
2019-05-11T04:52:49.510Z,1000.23
2019-05-11T04:53:55.025Z,1000.20
2019-05-11T04:55:00.530Z,1000.22
2019-05-11T04:56:06.039Z,1000.22
2019-05-11T04:57:11.553Z,1000.22
2019-05-11T04:58:17.062Z,1000.24
2019-05-11T04:59:22.579Z,1000.26
2019-05-11T05:00:28.085Z,1000.27
2019-05-11T05:01:33.596Z,1000.24
2019-05-11T05:02:39.102Z,1000.25
2019-05-11T05:03:47.355Z,1000.26
2019-05-11T05:04:50.125Z,1000.25
2019-05-11T05:05:55.633Z,1000.26
2019-05-11T05:07:05.521Z,1000.26
2019-05-11T05:08:09.545Z,1000.25
2019-05-11T05:09:12.182Z,1000.27
2019-05-11T05:10:20.096Z,1000.25
2019-05-11T05:11:23.197Z,1000.27
2019-05-11T05:12:28.693Z,1000.27
2019-05-11T05:13:34.206Z,1000.26
2019-05-11T05:14:39.720Z,1000.28
2019-05-11T05:15:45.223Z,1000.23
2019-05-11T05:16:50.732Z,1000.25
2019-05-11T05:17:56.243Z,1000.24
2019-05-11T05:19:01.773Z,1000.27
2019-05-11T05:20:07.275Z,1000.29
2019-05-11T05:21:12.786Z,1000.29
2019-05-11T05:22:18.291Z,1000.26
2019-05-11T05:23:23.800Z,1000.26
2019-05-11T05:24:29.312Z,1000.29
2019-05-11T05:25:34.817Z,1000.29
2019-05-11T05:26:40.336Z,1000.25
2019-05-11T05:27:45.844Z,1000.29
2019-05-11T05:28:51.353Z,1000.31
2019-05-11T05:29:56.866Z,1000.30
2019-05-11T05:31:02.381Z,1000.34
2019-05-11T05:32:07.887Z,1000.35
2019-05-11T05:33:13.395Z,1000.36
2019-05-11T05:34:18.949Z,1000.33
2019-05-11T05:35:24.425Z,1000.39
2019-05-11T05:36:29.923Z,1000.38
2019-05-11T05:37:35.442Z,1000.34
2019-05-11T05:38:40.944Z,1000.38
2019-05-11T05:39:46.463Z,1000.37
2019-05-11T05:40:51.976Z,1000.35
2019-05-11T05:41:57.792Z,1000.38
2019-05-11T05:43:02.991Z,1000.38
2019-05-11T05:44:08.501Z,1000.39
2019-05-11T05:45:14.008Z,1000.33
2019-05-11T05:46:19.525Z,1000.36
2019-05-11T05:47:25.040Z,1000.31
2019-05-11T05:48:30.536Z,1000.35
2019-05-11T05:49:36.070Z,1000.32
2019-05-11T05:50:41.565Z,1000.33
2019-05-11T05:51:47.083Z,1000.35
2019-05-11T05:52:52.584Z,1000.35
2019-05-11T05:53:58.093Z,1000.38
2019-05-11T05:55:03.600Z,1000.43
2019-05-11T05:56:09.120Z,1000.36
2019-05-11T05:57:14.625Z,1000.37
2019-05-11T05:58:20.147Z,1000.40
2019-05-11T05:59:25.643Z,1000.41
2019-05-11T06:00:31.179Z,1000.46
2019-05-11T06:01:36.668Z,1000.47
2019-05-11T06:02:42.180Z,1000.51
2019-05-11T06:03:47.697Z,1000.52
2019-05-11T06:04:53.196Z,1000.53
2019-05-11T06:05:58.724Z,1000.54
2019-05-11T06:07:04.224Z,1000.52
2019-05-11T06:08:09.735Z,1000.53
2019-05-11T06:09:15.242Z,1000.52
2019-05-11T06:10:20.756Z,1000.51
2019-05-11T06:11:26.267Z,1000.53
2019-05-11T06:12:31.782Z,1000.57
2019-05-11T06:13:45.249Z,1000.62
2019-05-11T06:14:42.805Z,1000.57
2019-05-11T06:15:48.326Z,1000.55
2019-05-11T06:16:53.834Z,1000.56
2019-05-11T06:18:00.586Z,1000.59
2019-05-11T06:19:04.839Z,1000.65
2019-05-11T06:20:10.478Z,1000.60
2019-05-11T06:21:15.861Z,1000.60
2019-05-11T06:22:21.367Z,1000.60
2019-05-11T06:23:26.876Z,1000.55
2019-05-11T06:24:32.393Z,1000.58
2019-05-11T06:25:37.907Z,1000.53
2019-05-11T06:26:43.414Z,1000.55
2019-05-11T06:27:48.930Z,1000.52
2019-05-11T06:28:54.437Z,1000.52
2019-05-11T06:29:59.946Z,1000.50
2019-05-11T06:31:05.451Z,1000.48
2019-05-11T06:32:10.961Z,1000.54
2019-05-11T06:33:16.481Z,1000.50
2019-05-11T06:34:21.989Z,1000.52
2019-05-11T06:35:27.497Z,1000.50
2019-05-11T06:36:33.014Z,1000.48
2019-05-11T06:37:38.518Z,1000.49
2019-05-11T06:38:44.026Z,1000.50
2019-05-11T06:39:49.552Z,1000.48
2019-05-11T06:40:55.052Z,1000.55
2019-05-11T06:42:00.571Z,1000.52
2019-05-11T06:43:06.077Z,1000.53
2019-05-11T06:44:11.581Z,1000.55
2019-05-11T06:45:17.095Z,1000.53
2019-05-11T06:46:22.604Z,1000.57
2019-05-11T06:47:28.122Z,1000.53
2019-05-11T06:48:33.633Z,1000.54
2019-05-11T06:49:39.136Z,1000.55
2019-05-11T06:50:44.648Z,1000.59
2019-05-11T06:51:50.166Z,1000.59
2019-05-11T06:52:55.668Z,1000.60
2019-05-11T06:54:01.182Z,1000.61
2019-05-11T06:55:06.693Z,1000.67
2019-05-11T06:56:12.202Z,1000.65
2019-05-11T06:57:17.718Z,1000.63
2019-05-11T06:58:23.218Z,1000.62
2019-05-11T06:59:28.744Z,1000.60
2019-05-11T07:00:34.239Z,1000.62
2019-05-11T07:01:39.762Z,1000.59
2019-05-11T07:02:45.265Z,1000.57
2019-05-11T07:03:50.772Z,1000.60
2019-05-11T07:04:56.291Z,1000.66
2019-05-11T07:06:01.799Z,1000.66
2019-05-11T07:07:07.302Z,1000.66
2019-05-11T07:08:12.822Z,1000.67
2019-05-11T07:09:18.325Z,1000.65
2019-05-11T07:10:23.846Z,1000.66
2019-05-11T07:11:29.355Z,1000.66
2019-05-11T07:12:34.857Z,1000.64
2019-05-11T07:13:40.366Z,1000.63
2019-05-11T07:14:45.911Z,1000.59
2019-05-11T07:15:51.423Z,1000.61
2019-05-11T07:16:56.933Z,1000.62
2019-05-11T07:18:02.421Z,1000.65
2019-05-11T07:19:07.931Z,1000.67
2019-05-11T07:20:13.440Z,1000.65
2019-05-11T07:21:18.949Z,1000.66
2019-05-11T07:22:24.460Z,1000.69
2019-05-11T07:23:29.973Z,1000.65
2019-05-11T07:24:35.563Z,1000.73
2019-05-11T07:25:40.991Z,1000.69
2019-05-11T07:26:46.502Z,1000.73
2019-05-11T07:27:52.026Z,1000.70
2019-05-11T07:28:57.527Z,1000.78
2019-05-11T07:30:03.037Z,1000.79
2019-05-11T07:31:08.560Z,1000.76
2019-05-11T07:32:21.992Z,1000.80
2019-05-11T07:33:19.573Z,1000.83
2019-05-11T07:34:25.074Z,1000.85
2019-05-11T07:35:30.607Z,1000.86
2019-05-11T07:36:38.584Z,1000.82
2019-05-11T07:37:41.636Z,1000.80
2019-05-11T07:38:48.765Z,1000.82
2019-05-11T07:39:52.636Z,1000.79
2019-05-11T07:40:58.367Z,1000.79
2019-05-11T07:42:03.661Z,1000.84
2019-05-11T07:43:09.784Z,1000.86
2019-05-11T07:44:14.679Z,1000.85
2019-05-11T07:45:20.187Z,1000.86
2019-05-11T07:46:25.698Z,1000.86
2019-05-11T07:47:31.210Z,1000.90
2019-05-11T07:48:38.791Z,1000.90
2019-05-11T07:49:42.244Z,1000.93
2019-05-11T07:50:48.016Z,1000.92
2019-05-11T07:51:53.249Z,1000.91
2019-05-11T07:52:59.047Z,1000.91
2019-05-11T07:54:04.279Z,1000.90
2019-05-11T07:55:09.806Z,1000.92
2019-05-11T07:56:15.307Z,1000.96
2019-05-11T07:57:20.806Z,1000.92
2019-05-11T07:58:28.568Z,1000.93
2019-05-11T07:59:31.832Z,1000.92
2019-05-11T08:00:39.788Z,1000.95
2019-05-11T08:01:42.854Z,1000.93
2019-05-11T08:02:48.366Z,1000.99
2019-05-11T08:03:53.873Z,1000.97
2019-05-11T08:04:59.400Z,1001.00
2019-05-11T08:06:04.896Z,1001.00
2019-05-11T08:07:10.405Z,1000.99
2019-05-11T08:08:18.010Z,1001.00
2019-05-11T08:09:21.424Z,1001.02
2019-05-11T08:10:28.146Z,1000.98
2019-05-11T08:11:32.452Z,1001.00
2019-05-11T08:12:39.145Z,1000.99
2019-05-11T08:13:43.477Z,1000.98
2019-05-11T08:14:58.847Z,1000.99
2019-05-11T08:15:54.490Z,1000.99
2019-05-11T08:17:00.008Z,1001.00
2019-05-11T08:18:05.514Z,1001.03
2019-05-11T08:19:11.071Z,1000.97
2019-05-11T08:20:18.658Z,1001.04
2019-05-11T08:21:22.061Z,1001.06
2019-05-11T08:22:28.402Z,1001.06
2019-05-11T08:23:33.083Z,1001.07
2019-05-11T08:24:38.598Z,1001.10
2019-05-11T08:25:44.091Z,1001.12
2019-05-11T08:26:49.622Z,1001.16
2019-05-11T08:27:55.126Z,1001.20
2019-05-11T08:29:00.782Z,1001.18
2019-05-11T08:30:08.377Z,1001.16
2019-05-11T08:31:11.732Z,1001.19
2019-05-11T08:32:18.333Z,1001.22
2019-05-11T08:33:22.668Z,1001.23
2019-05-11T08:34:28.664Z,1001.24
2019-05-11T08:35:33.691Z,1001.24
2019-05-11T08:36:39.207Z,1001.22
2019-05-11T08:37:44.715Z,1001.28
2019-05-11T08:38:50.241Z,1001.28
2019-05-11T08:39:55.745Z,1001.25
2019-05-11T08:41:01.253Z,1001.27
2019-05-11T08:42:08.737Z,1001.30
2019-05-11T08:43:12.270Z,1001.32
2019-05-11T08:44:18.245Z,1001.29
2019-05-11T08:45:24.740Z,1001.32
2019-05-11T08:46:28.800Z,1001.32
2019-05-11T08:47:34.646Z,1001.33
2019-05-11T08:48:39.902Z,1001.37
2019-05-11T08:49:45.580Z,1001.38
2019-05-11T08:50:50.845Z,1001.41
2019-05-11T08:51:57.855Z,1001.38
2019-05-11T08:53:01.874Z,1001.41
2019-05-11T08:54:08.971Z,1001.47
2019-05-11T08:55:12.888Z,1001.50
2019-05-11T08:56:18.856Z,1001.52
2019-05-11T08:57:23.923Z,1001.52
2019-05-11T08:58:29.422Z,1001.56
2019-05-11T08:59:34.943Z,1001.56
2019-05-11T09:00:40.459Z,1001.58
2019-05-11T09:01:48.227Z,1001.63
2019-05-11T09:02:51.469Z,1001.65
2019-05-11T09:03:58.371Z,1001.68
2019-05-11T09:05:02.490Z,1001.69
2019-05-11T09:06:08.577Z,1001.70
2019-05-11T09:07:13.513Z,1001.73
2019-05-11T09:08:19.046Z,1001.72
2019-05-11T09:09:24.530Z,1001.73
2019-05-11T09:10:30.053Z,1001.74
2019-05-11T09:11:35.561Z,1001.80
2019-05-11T09:12:41.063Z,1001.75
2019-05-11T09:13:48.649Z,1001.81
2019-05-11T09:14:52.083Z,1001.76
2019-05-11T09:15:58.835Z,1001.81
2019-05-11T09:17:03.113Z,1001.82
2019-05-11T09:18:08.626Z,1001.83
2019-05-11T09:19:14.132Z,1001.83
2019-05-11T09:20:19.641Z,1001.87
2019-05-11T09:21:25.151Z,1001.85
2019-05-11T09:22:30.675Z,1001.88
2019-05-11T09:23:39.802Z,1001.92
2019-05-11T09:24:41.699Z,1001.92
2019-05-11T09:25:47.743Z,1001.93
2019-05-11T09:26:52.708Z,1001.99
2019-05-11T09:27:58.769Z,1002.01
2019-05-11T09:29:03.732Z,1002.05
2019-05-11T09:30:09.259Z,1002.08
2019-05-11T09:31:14.758Z,1002.14
2019-05-11T09:32:20.263Z,1002.16
2019-05-11T09:33:28.139Z,1002.17
2019-05-11T09:34:31.280Z,1002.18
2019-05-11T09:35:49.248Z,1002.17
2019-05-11T09:36:42.316Z,1002.18
2019-05-11T09:37:48.550Z,1002.18
2019-05-11T09:38:53.325Z,1002.21
2019-05-11T09:39:58.841Z,1002.22
2019-05-11T09:41:04.352Z,1002.22
2019-05-11T09:42:09.869Z,1002.27
2019-05-11T09:43:17.702Z,1002.30
2019-05-11T09:44:20.887Z,1002.29
2019-05-11T09:45:27.814Z,1002.30
2019-05-11T09:46:31.924Z,1002.31
2019-05-11T09:47:38.681Z,1002.30
2019-05-11T09:48:42.934Z,1002.27
2019-05-11T09:49:51.014Z,1002.34
2019-05-11T09:50:53.963Z,1002.36
2019-05-11T09:51:59.467Z,1002.36
2019-05-11T09:53:04.988Z,1002.34
2019-05-11T09:54:10.486Z,1002.35
2019-05-11T09:55:15.991Z,1002.37
2019-05-11T09:56:21.499Z,1002.37
2019-05-11T09:57:27.654Z,1002.41
2019-05-11T09:58:32.527Z,1002.40
2019-05-11T09:59:38.646Z,1002.44
2019-05-11T10:00:43.553Z,1002.45
2019-05-11T10:01:49.054Z,1002.46
2019-05-11T10:02:54.585Z,1002.45
2019-05-11T10:04:00.074Z,1002.48
2019-05-11T10:05:08.075Z,1002.53
2019-05-11T10:06:11.104Z,1002.51
2019-05-11T10:07:18.138Z,1002.48
2019-05-11T10:08:22.135Z,1002.52
2019-05-11T10:09:28.124Z,1002.52
2019-05-11T10:10:33.158Z,1002.54
2019-05-11T10:11:39.879Z,1002.53
2019-05-11T10:12:44.183Z,1002.55
2019-05-11T10:13:49.680Z,1002.54
2019-05-11T10:14:55.184Z,1002.56
2019-05-11T10:16:06.792Z,1002.56
2019-05-11T10:17:07.781Z,1002.55
2019-05-11T10:18:11.731Z,1002.57
2019-05-11T10:19:17.909Z,1002.55
2019-05-11T10:20:22.747Z,1002.63
2019-05-11T10:21:28.261Z,1002.57
2019-05-11T10:22:33.797Z,1002.61
2019-05-11T10:23:42.140Z,1002.64
2019-05-11T10:24:44.789Z,1002.66
2019-05-11T10:25:50.297Z,1002.66
2019-05-11T10:26:57.823Z,1002.63
2019-05-11T10:28:01.328Z,1002.62
2019-05-11T10:29:07.887Z,1002.67
2019-05-11T10:30:12.343Z,1002.70
2019-05-11T10:31:18.323Z,1002.67
2019-05-11T10:32:23.359Z,1002.70
2019-05-11T10:33:28.885Z,1002.68
2019-05-11T10:34:34.393Z,1002.73
2019-05-11T10:35:39.902Z,1002.72
2019-05-11T10:36:45.413Z,1002.75
2019-05-11T10:37:50.922Z,1002.78
2019-05-11T10:38:58.636Z,1002.78
2019-05-11T10:40:01.952Z,1002.80
2019-05-11T10:41:08.748Z,1002.81
2019-05-11T10:42:12.973Z,1002.86
2019-05-11T10:43:18.522Z,1002.91
2019-05-11T10:44:23.999Z,1002.93
2019-05-11T10:45:29.513Z,1002.97
2019-05-11T10:46:35.021Z,1003.00
2019-05-11T10:47:40.529Z,1003.00
2019-05-11T10:48:48.207Z,1002.99
2019-05-11T10:49:51.602Z,1003.01
2019-05-11T10:50:57.481Z,1003.04
2019-05-11T10:52:02.573Z,1003.04
2019-05-11T10:53:08.154Z,1003.08
2019-05-11T10:54:13.600Z,1003.08
2019-05-11T10:55:19.651Z,1003.08
2019-05-11T10:56:24.611Z,1003.11
2019-05-11T10:57:30.132Z,1003.13
2019-05-11T10:58:37.758Z,1003.16
2019-05-11T10:59:41.155Z,1003.14
2019-05-11T11:00:48.104Z,1003.13
2019-05-11T11:01:52.159Z,1003.13
2019-05-11T11:02:58.378Z,1003.15
2019-05-11T11:04:03.201Z,1003.13
2019-05-11T11:05:08.704Z,1003.17
2019-05-11T11:06:14.232Z,1003.18
2019-05-11T11:07:19.718Z,1003.20
2019-05-11T11:08:27.651Z,1003.21
2019-05-11T11:09:30.763Z,1003.22
2019-05-11T11:10:37.908Z,1003.20
2019-05-11T11:11:41.774Z,1003.25
2019-05-11T11:12:49.010Z,1003.26
2019-05-11T11:13:52.803Z,1003.27
2019-05-11T11:14:58.785Z,1003.26
2019-05-11T11:16:03.858Z,1003.28
2019-05-11T11:17:09.356Z,1003.29
2019-05-11T11:18:14.850Z,1003.30
2019-05-11T11:19:20.348Z,1003.27
2019-05-11T11:20:27.995Z,1003.30
2019-05-11T11:21:31.374Z,1003.36
2019-05-11T11:22:42.829Z,1003.39
2019-05-11T11:23:42.401Z,1003.42
2019-05-11T11:24:48.291Z,1003.40
2019-05-11T11:25:53.426Z,1003.37
2019-05-11T11:26:58.936Z,1003.43
2019-05-11T11:28:04.451Z,1003.37
2019-05-11T11:29:09.957Z,1003.43
2019-05-11T11:30:15.491Z,1003.47
2019-05-11T11:31:20.972Z,1003.43
2019-05-11T11:32:27.882Z,1003.48
2019-05-11T11:33:31.992Z,1003.50
2019-05-11T11:34:38.388Z,1003.51
2019-05-11T11:35:43.023Z,1003.54
2019-05-11T11:36:48.563Z,1003.54
2019-05-11T11:37:54.054Z,1003.56
2019-05-11T11:38:59.556Z,1003.64
2019-05-11T11:40:05.072Z,1003.62
2019-05-11T11:41:10.580Z,1003.64
2019-05-11T11:42:17.872Z,1003.67
2019-05-11T11:43:21.601Z,1003.72
2019-05-11T11:44:28.634Z,1003.71
2019-05-11T11:45:32.645Z,1003.79
2019-05-11T11:46:50.881Z,1003.75
2019-05-11T11:47:43.657Z,1003.77
2019-05-11T11:48:49.283Z,1003.81
2019-05-11T11:49:54.675Z,1003.81
2019-05-11T11:51:00.177Z,1003.85
2019-05-11T11:52:08.098Z,1003.87
2019-05-11T11:53:11.198Z,1003.91
2019-05-11T11:54:18.198Z,1003.93
2019-05-11T11:55:22.234Z,1003.94
2019-05-11T11:56:28.399Z,1003.93
2019-05-11T11:57:33.257Z,1003.94
2019-05-11T11:58:38.761Z,1003.94
2019-05-11T11:59:44.284Z,1003.95
2019-05-11T12:00:49.793Z,1003.95
2019-05-11T12:01:57.946Z,1003.97
2019-05-11T12:03:00.810Z,1004.01
2019-05-11T12:04:08.198Z,1003.99
2019-05-11T12:05:11.839Z,1004.02
2019-05-11T12:06:18.242Z,1004.00
2019-05-11T12:07:22.875Z,1004.03
2019-05-11T12:08:28.420Z,1004.06
2019-05-11T12:09:33.871Z,1004.09
2019-05-11T12:10:39.389Z,1004.11
2019-05-11T12:11:44.905Z,1004.12
2019-05-11T12:12:50.414Z,1004.14
2019-05-11T12:13:57.919Z,1004.18
2019-05-11T12:15:01.436Z,1004.16
2019-05-11T12:16:07.766Z,1004.21
2019-05-11T12:17:12.457Z,1004.25
2019-05-11T12:18:18.478Z,1004.24
2019-05-11T12:19:23.490Z,1004.30
2019-05-11T12:20:28.993Z,1004.25
2019-05-11T12:21:34.526Z,1004.31
2019-05-11T12:22:40.026Z,1004.29
2019-05-11T12:23:48.278Z,1004.33
2019-05-11T12:24:51.039Z,1004.34
2019-05-11T12:25:58.025Z,1004.32
2019-05-11T12:27:02.062Z,1004.35
2019-05-11T12:28:08.091Z,1004.37
2019-05-11T12:29:13.085Z,1004.36
2019-05-11T12:30:18.595Z,1004.35
2019-05-11T12:31:24.108Z,1004.35
2019-05-11T12:32:29.624Z,1004.44
2019-05-11T12:33:35.138Z,1004.40
2019-05-11T12:34:40.647Z,1004.38
2019-05-11T12:35:48.089Z,1004.45
2019-05-11T12:36:51.668Z,1004.45
2019-05-11T12:37:58.797Z,1004.45
2019-05-11T12:39:02.686Z,1004.50
2019-05-11T12:40:08.550Z,1004.53
2019-05-11T12:41:13.715Z,1004.54
2019-05-11T12:42:19.223Z,1004.53
2019-05-11T12:43:24.736Z,1004.56
2019-05-11T12:44:30.239Z,1004.56
2019-05-11T12:45:37.650Z,1004.61
2019-05-11T12:46:41.280Z,1004.60
2019-05-11T12:47:48.005Z,1004.61
2019-05-11T12:48:52.305Z,1004.66
2019-05-11T12:49:58.583Z,1004.65
2019-05-11T12:51:03.316Z,1004.67
2019-05-11T12:52:08.814Z,1004.76
2019-05-11T12:53:15.054Z,1004.74
2019-05-11T12:54:19.854Z,1004.76
2019-05-11T12:55:25.361Z,1004.81
2019-05-11T12:56:30.877Z,1004.81
2019-05-11T12:57:38.430Z,1004.80
2019-05-11T12:58:41.896Z,1004.82
2019-05-11T12:59:48.767Z,1004.90
2019-05-11T13:00:52.926Z,1004.87
2019-05-11T13:01:59.210Z,1004.93
2019-05-11T13:03:03.953Z,1004.94
2019-05-11T13:04:09.461Z,1004.98
2019-05-11T13:05:14.964Z,1004.98
2019-05-11T13:06:20.485Z,1005.03
2019-05-11T13:07:28.277Z,1005.05
2019-05-11T13:08:31.517Z,1005.07
2019-05-11T13:09:38.025Z,1005.10
2019-05-11T13:10:42.530Z,1005.16
2019-05-11T13:11:48.362Z,1005.16
2019-05-11T13:12:53.561Z,1005.19
2019-05-11T13:13:59.068Z,1005.21